sensor_id;sensor_type;location;lat;lon;timestamp;temperature;humidity
39675;DHT22;27790;50.840;4.386;2022-12-18T00:00:46;0.20;99.90
39675;DHT22;27790;50.840;4.386;2022-12-18T00:03:15;0.20;99.90
39675;DHT22;27790;50.840;4.386;2022-12-18T00:05:51;0.20;99.90
39675;DHT22;27790;50.840;4.386;2022-12-18T00:08:18;0.20;99.90
39675;DHT22;27790;50.840;4.386;2022-12-18T00:10:44;0.10;99.90
39675;DHT22;27790;50.840;4.386;2022-12-18T00:13:10;0.10;99.90
39675;DHT22;27790;50.840;4.386;2022-12-18T00:15:37;0.00;99.90
39675;DHT22;27790;50.840;4.386;2022-12-18T00:18:03;0.00;99.90
39675;DHT22;27790;50.840;4.386;2022-12-18T00:20:29;0.00;99.90
39675;DHT22;27790;50.840;4.386;2022-12-18T00:22:55;-0.10;99.90
39675;DHT22;27790;50.840;4.386;2022-12-18T00:25:21;-0.10;99.90
39675;DHT22;27790;50.840;4.386;2022-12-18T00:27:48;-0.10;99.90
39675;DHT22;27790;50.840;4.386;2022-12-18T00:30:14;-0.10;99.90
39675;DHT22;27790;50.840;4.386;2022-12-18T00:32:39;-0.10;99.90
39675;DHT22;27790;50.840;4.386;2022-12-18T00:35:06;-0.10;99.90
39675;DHT22;27790;50.840;4.386;2022-12-18T00:37:33;-0.10;99.90
39675;DHT22;27790;50.840;4.386;2022-12-18T00:39:59;-0.10;99.90
39675;DHT22;27790;50.840;4.386;2022-12-18T00:42:24;-0.10;99.90
39675;DHT22;27790;50.840;4.386;2022-12-18T00:45:01;-0.10;99.90
39675;DHT22;27790;50.840;4.386;2022-12-18T00:47:27;-0.20;99.90
39675;DHT22;27790;50.840;4.386;2022-12-18T00:49:52;-0.20;99.90
39675;DHT22;27790;50.840;4.386;2022-12-18T00:52:18;-0.20;99.90
39675;DHT22;27790;50.840;4.386;2022-12-18T00:54:43;-0.20;99.90
39675;DHT22;27790;50.840;4.386;2022-12-18T00:57:09;-0.20;99.90
39675;DHT22;27790;50.840;4.386;2022-12-18T00:59:34;-0.20;99.90
39675;DHT22;27790;50.840;4.386;2022-12-18T01:02:00;-0.10;99.90
39675;DHT22;27790;50.840;4.386;2022-12-18T01:04:26;-0.20;99.90
39675;DHT22;27790;50.840;4.386;2022-12-18T01:06:51;-0.20;99.90
39675;DHT22;27790;50.840;4.386;2022-12-18T01:09:17;-0.20;99.90
39675;DHT22;27790;50.840;4.386;2022-12-18T01:11:42;-0.20;99.90
39675;DHT22;27790;50.840;4.386;2022-12-18T01:14:08;-0.30;99.90
39675;DHT22;27790;50.840;4.386;2022-12-18T01:16:34;-0.30;99.90
39675;DHT22;27790;50.840;4.386;2022-12-18T01:18:59;-0.30;99.90
39675;DHT22;27790;50.840;4.386;2022-12-18T01:21:25;-0.40;99.90
39675;DHT22;27790;50.840;4.386;2022-12-18T01:23:55;-0.30;99.90
39675;DHT22;27790;50.840;4.386;2022-12-18T01:26:22;-0.40;99.90
39675;DHT22;27790;50.840;4.386;2022-12-18T01:28:48;-0.30;99.90
39675;DHT22;27790;50.840;4.386;2022-12-18T01:31:23;-0.30;99.90
39675;DHT22;27790;50.840;4.386;2022-12-18T01:33:50;-0.40;99.90
39675;DHT22;27790;50.840;4.386;2022-12-18T01:36:22;-0.40;99.90
39675;DHT22;27790;50.840;4.386;2022-12-18T01:38:49;-0.30;99.90
39675;DHT22;27790;50.840;4.386;2022-12-18T01:41:17;-0.40;99.90
39675;DHT22;27790;50.840;4.386;2022-12-18T01:43:55;-0.40;99.90
39675;DHT22;27790;50.840;4.386;2022-12-18T01:46:26;-0.40;99.90
39675;DHT22;27790;50.840;4.386;2022-12-18T01:49:00;-0.40;99.90
39675;DHT22;27790;50.840;4.386;2022-12-18T01:51:28;-0.50;99.90
39675;DHT22;27790;50.840;4.386;2022-12-18T01:53:55;-0.40;99.90
39675;DHT22;27790;50.840;4.386;2022-12-18T01:56:21;-0.50;99.90
39675;DHT22;27790;50.840;4.386;2022-12-18T02:01:24;-0.40;99.90
39675;DHT22;27790;50.840;4.386;2022-12-18T02:03:51;-0.50;99.90
39675;DHT22;27790;50.840;4.386;2022-12-18T02:06:33;-0.50;99.90
39675;DHT22;27790;50.840;4.386;2022-12-18T02:09:07;-0.50;99.90
39675;DHT22;27790;50.840;4.386;2022-12-18T02:25:20;-0.50;99.90
39675;DHT22;27790;50.840;4.386;2022-12-18T02:27:49;-0.50;99.90
39675;DHT22;27790;50.840;4.386;2022-12-18T02:30:16;-0.50;99.90
39675;DHT22;27790;50.840;4.386;2022-12-18T02:32:46;-0.50;99.90
39675;DHT22;27790;50.840;4.386;2022-12-18T02:35:17;-0.50;99.90
39675;DHT22;27790;50.840;4.386;2022-12-18T02:37:46;-0.40;99.90
39675;DHT22;27790;50.840;4.386;2022-12-18T02:40:13;-0.50;99.90
39675;DHT22;27790;50.840;4.386;2022-12-18T02:42:40;-0.40;99.90
39675;DHT22;27790;50.840;4.386;2022-12-18T02:45:06;-0.50;99.90
39675;DHT22;27790;50.840;4.386;2022-12-18T02:47:35;-0.50;99.90
39675;DHT22;27790;50.840;4.386;2022-12-18T02:50:08;-0.50;99.90
39675;DHT22;27790;50.840;4.386;2022-12-18T02:56:19;-0.50;99.90
39675;DHT22;27790;50.840;4.386;2022-12-18T02:58:45;-0.60;99.90
39675;DHT22;27790;50.840;4.386;2022-12-18T03:01:24;-0.60;99.90
39675;DHT22;27790;50.840;4.386;2022-12-18T03:04:01;-0.60;99.90
39675;DHT22;27790;50.840;4.386;2022-12-18T03:06:49;-0.60;99.90
39675;DHT22;27790;50.840;4.386;2022-12-18T03:09:24;-0.70;99.70
39675;DHT22;27790;50.840;4.386;2022-12-18T03:11:58;-0.70;99.80
39675;DHT22;27790;50.840;4.386;2022-12-18T03:14:38;-0.70;99.90
39675;DHT22;27790;50.840;4.386;2022-12-18T03:17:09;-0.80;99.90
39675;DHT22;27790;50.840;4.386;2022-12-18T03:19:35;-0.80;99.90
39675;DHT22;27790;50.840;4.386;2022-12-18T03:22:06;-0.80;99.90
39675;DHT22;27790;50.840;4.386;2022-12-18T03:24:33;-0.80;99.90
39675;DHT22;27790;50.840;4.386;2022-12-18T03:27:06;-0.80;99.90
39675;DHT22;27790;50.840;4.386;2022-12-18T03:29:39;-0.80;99.90
39675;DHT22;27790;50.840;4.386;2022-12-18T03:32:11;-0.90;99.90
39675;DHT22;27790;50.840;4.386;2022-12-18T03:34:42;-0.90;99.90
39675;DHT22;27790;50.840;4.386;2022-12-18T03:37:09;-1.00;99.90
39675;DHT22;27790;50.840;4.386;2022-12-18T03:39:35;-1.00;99.90
39675;DHT22;27790;50.840;4.386;2022-12-18T03:45:07;-1.00;99.90
39675;DHT22;27790;50.840;4.386;2022-12-18T03:50:34;-1.10;99.90
39675;DHT22;27790;50.840;4.386;2022-12-18T03:55:48;-1.10;99.90
39675;DHT22;27790;50.840;4.386;2022-12-18T03:58:17;-1.10;99.80
39675;DHT22;27790;50.840;4.386;2022-12-18T04:00:45;-1.10;99.80
39675;DHT22;27790;50.840;4.386;2022-12-18T04:03:12;-1.00;99.80
39675;DHT22;27790;50.840;4.386;2022-12-18T04:05:39;-1.00;99.60
39675;DHT22;27790;50.840;4.386;2022-12-18T04:08:06;-1.10;99.60
39675;DHT22;27790;50.840;4.386;2022-12-18T04:10:32;-1.10;99.50
39675;DHT22;27790;50.840;4.386;2022-12-18T04:12:58;-1.10;99.50
39675;DHT22;27790;50.840;4.386;2022-12-18T04:15:23;-1.10;99.60
39675;DHT22;27790;50.840;4.386;2022-12-18T04:17:50;-1.10;99.50
39675;DHT22;27790;50.840;4.386;2022-12-18T04:20:16;-1.20;99.40
39675;DHT22;27790;50.840;4.386;2022-12-18T04:22:42;-1.30;99.60
39675;DHT22;27790;50.840;4.386;2022-12-18T04:25:08;-1.30;99.70
39675;DHT22;27790;50.840;4.386;2022-12-18T04:27:37;-1.30;99.70
39675;DHT22;27790;50.840;4.386;2022-12-18T04:30:03;-1.30;99.70
39675;DHT22;27790;50.840;4.386;2022-12-18T04:32:29;-1.20;99.60
39675;DHT22;27790;50.840;4.386;2022-12-18T04:34:54;-1.20;99.70
39675;DHT22;27790;50.840;4.386;2022-12-18T04:37:20;-1.20;99.60
39675;DHT22;27790;50.840;4.386;2022-12-18T04:39:45;-1.20;99.60
39675;DHT22;27790;50.840;4.386;2022-12-18T04:42:11;-1.20;99.50
39675;DHT22;27790;50.840;4.386;2022-12-18T04:44:37;-1.20;99.50
39675;DHT22;27790;50.840;4.386;2022-12-18T04:47:02;-1.20;99.40
39675;DHT22;27790;50.840;4.386;2022-12-18T04:49:28;-1.10;99.70
39675;DHT22;27790;50.840;4.386;2022-12-18T04:51:54;-1.10;99.40
39675;DHT22;27790;50.840;4.386;2022-12-18T04:54:19;-1.20;99.40
39675;DHT22;27790;50.840;4.386;2022-12-18T04:56:45;-1.20;99.40
39675;DHT22;27790;50.840;4.386;2022-12-18T04:59:10;-1.20;99.50
39675;DHT22;27790;50.840;4.386;2022-12-18T05:01:36;-1.20;99.40
39675;DHT22;27790;50.840;4.386;2022-12-18T05:04:02;-1.20;99.50
39675;DHT22;27790;50.840;4.386;2022-12-18T05:06:28;-1.20;99.50
39675;DHT22;27790;50.840;4.386;2022-12-18T05:08:53;-1.30;99.50
39675;DHT22;27790;50.840;4.386;2022-12-18T05:11:19;-1.30;99.60
39675;DHT22;27790;50.840;4.386;2022-12-18T05:13:45;-1.30;99.40
39675;DHT22;27790;50.840;4.386;2022-12-18T05:16:11;-1.20;99.40
39675;DHT22;27790;50.840;4.386;2022-12-18T05:18:37;-1.20;99.20
39675;DHT22;27790;50.840;4.386;2022-12-18T05:21:03;-1.30;99.20
39675;DHT22;27790;50.840;4.386;2022-12-18T05:23:29;-1.30;99.30
39675;DHT22;27790;50.840;4.386;2022-12-18T05:25:57;-1.30;99.20
39675;DHT22;27790;50.840;4.386;2022-12-18T05:28:24;-1.30;99.20
39675;DHT22;27790;50.840;4.386;2022-12-18T05:30:52;-1.30;99.20
39675;DHT22;27790;50.840;4.386;2022-12-18T05:33:19;-1.30;99.30
39675;DHT22;27790;50.840;4.386;2022-12-18T05:35:56;-1.40;99.20
39675;DHT22;27790;50.840;4.386;2022-12-18T05:38:23;-1.30;99.20
39675;DHT22;27790;50.840;4.386;2022-12-18T05:40:50;-1.30;99.00
39675;DHT22;27790;50.840;4.386;2022-12-18T05:43:16;-1.20;98.70
39675;DHT22;27790;50.840;4.386;2022-12-18T05:45:42;-1.30;98.80
39675;DHT22;27790;50.840;4.386;2022-12-18T05:48:09;-1.40;98.80
39675;DHT22;27790;50.840;4.386;2022-12-18T05:50:39;-1.30;99.00
39675;DHT22;27790;50.840;4.386;2022-12-18T05:53:06;-1.30;98.90
39675;DHT22;27790;50.840;4.386;2022-12-18T05:55:35;-1.30;98.90
39675;DHT22;27790;50.840;4.386;2022-12-18T05:58:03;-1.30;98.60
39675;DHT22;27790;50.840;4.386;2022-12-18T06:00:29;-1.30;98.60
39675;DHT22;27790;50.840;4.386;2022-12-18T06:02:55;-1.40;98.70
39675;DHT22;27790;50.840;4.386;2022-12-18T06:05:21;-1.40;98.80
39675;DHT22;27790;50.840;4.386;2022-12-18T06:07:46;-1.40;98.90
39675;DHT22;27790;50.840;4.386;2022-12-18T06:10:12;-1.40;98.90
39675;DHT22;27790;50.840;4.386;2022-12-18T06:12:37;-1.30;99.00
39675;DHT22;27790;50.840;4.386;2022-12-18T06:15:03;-1.30;99.10
39675;DHT22;27790;50.840;4.386;2022-12-18T06:17:30;-1.30;99.20
39675;DHT22;27790;50.840;4.386;2022-12-18T06:19:55;-1.20;99.10
39675;DHT22;27790;50.840;4.386;2022-12-18T06:22:21;-1.20;99.10
39675;DHT22;27790;50.840;4.386;2022-12-18T06:24:47;-1.20;99.00
39675;DHT22;27790;50.840;4.386;2022-12-18T06:27:13;-1.10;98.90
39675;DHT22;27790;50.840;4.386;2022-12-18T06:29:38;-1.10;98.80
39675;DHT22;27790;50.840;4.386;2022-12-18T06:32:04;-1.10;98.60
39675;DHT22;27790;50.840;4.386;2022-12-18T06:34:31;-1.10;98.50
39675;DHT22;27790;50.840;4.386;2022-12-18T06:36:58;-1.10;98.50
39675;DHT22;27790;50.840;4.386;2022-12-18T06:39:24;-1.10;98.50
39675;DHT22;27790;50.840;4.386;2022-12-18T06:41:50;-1.10;98.60
39675;DHT22;27790;50.840;4.386;2022-12-18T06:44:15;-1.10;98.70
39675;DHT22;27790;50.840;4.386;2022-12-18T06:46:41;-1.10;98.60
39675;DHT22;27790;50.840;4.386;2022-12-18T06:49:06;-1.00;98.40
39675;DHT22;27790;50.840;4.386;2022-12-18T06:51:34;-1.00;98.30
39675;DHT22;27790;50.840;4.386;2022-12-18T06:54:00;-0.90;98.10
39675;DHT22;27790;50.840;4.386;2022-12-18T06:56:26;-0.90;97.80
39675;DHT22;27790;50.840;4.386;2022-12-18T06:58:51;-0.90;97.90
39675;DHT22;27790;50.840;4.386;2022-12-18T07:01:17;-0.90;97.90
39675;DHT22;27790;50.840;4.386;2022-12-18T07:03:43;-0.90;97.90
39675;DHT22;27790;50.840;4.386;2022-12-18T07:06:17;-0.90;97.90
39675;DHT22;27790;50.840;4.386;2022-12-18T07:08:44;-0.90;97.70
39675;DHT22;27790;50.840;4.386;2022-12-18T07:11:10;-0.80;97.60
39675;DHT22;27790;50.840;4.386;2022-12-18T07:13:36;-0.80;97.30
39675;DHT22;27790;50.840;4.386;2022-12-18T07:16:16;-0.80;97.30
39675;DHT22;27790;50.840;4.386;2022-12-18T07:18:42;-0.90;97.50
39675;DHT22;27790;50.840;4.386;2022-12-18T07:21:09;-0.90;97.70
39675;DHT22;27790;50.840;4.386;2022-12-18T07:23:35;-0.90;97.60
39675;DHT22;27790;50.840;4.386;2022-12-18T07:26:10;-0.90;97.70
39675;DHT22;27790;50.840;4.386;2022-12-18T07:28:37;-0.90;97.90
39675;DHT22;27790;50.840;4.386;2022-12-18T07:31:11;-0.90;97.60
39675;DHT22;27790;50.840;4.386;2022-12-18T07:33:37;-0.90;97.60
39675;DHT22;27790;50.840;4.386;2022-12-18T07:36:04;-0.80;97.40
39675;DHT22;27790;50.840;4.386;2022-12-18T07:38:31;-0.80;97.30
39675;DHT22;27790;50.840;4.386;2022-12-18T07:41:04;-0.80;97.30
39675;DHT22;27790;50.840;4.386;2022-12-18T07:43:30;-0.80;97.30
39675;DHT22;27790;50.840;4.386;2022-12-18T07:45:56;-0.80;97.20
39675;DHT22;27790;50.840;4.386;2022-12-18T07:48:21;-0.80;97.30
39675;DHT22;27790;50.840;4.386;2022-12-18T07:50:47;-0.80;97.30
39675;DHT22;27790;50.840;4.386;2022-12-18T07:53:13;-0.70;97.00
39675;DHT22;27790;50.840;4.386;2022-12-18T07:55:40;-0.80;97.00
39675;DHT22;27790;50.840;4.386;2022-12-18T07:58:07;-0.80;97.10
39675;DHT22;27790;50.840;4.386;2022-12-18T08:00:33;-0.80;97.30
39675;DHT22;27790;50.840;4.386;2022-12-18T08:02:58;-0.80;97.30
39675;DHT22;27790;50.840;4.386;2022-12-18T08:05:24;-0.80;97.40
39675;DHT22;27790;50.840;4.386;2022-12-18T08:07:50;-0.80;97.40
39675;DHT22;27790;50.840;4.386;2022-12-18T08:10:16;-0.70;97.40
39675;DHT22;27790;50.840;4.386;2022-12-18T08:12:41;-0.60;97.40
39675;DHT22;27790;50.840;4.386;2022-12-18T08:15:07;-0.60;97.10
39675;DHT22;27790;50.840;4.386;2022-12-18T08:17:33;-0.50;97.10
39675;DHT22;27790;50.840;4.386;2022-12-18T08:19:58;-0.40;96.90
39675;DHT22;27790;50.840;4.386;2022-12-18T08:22:24;-0.30;96.90
39675;DHT22;27790;50.840;4.386;2022-12-18T08:24:50;-0.20;96.90
39675;DHT22;27790;50.840;4.386;2022-12-18T08:27:15;-0.10;96.60
39675;DHT22;27790;50.840;4.386;2022-12-18T08:29:41;0.00;96.60
39675;DHT22;27790;50.840;4.386;2022-12-18T08:32:07;0.10;96.40
39675;DHT22;27790;50.840;4.386;2022-12-18T08:34:32;0.20;96.30
39675;DHT22;27790;50.840;4.386;2022-12-18T08:36:58;0.30;96.20
39675;DHT22;27790;50.840;4.386;2022-12-18T08:39:23;0.30;95.90
39675;DHT22;27790;50.840;4.386;2022-12-18T08:41:49;0.40;95.90
39675;DHT22;27790;50.840;4.386;2022-12-18T08:44:25;0.40;95.90
39675;DHT22;27790;50.840;4.386;2022-12-18T08:47:02;0.50;95.80
39675;DHT22;27790;50.840;4.386;2022-12-18T08:49:27;0.40;95.80
39675;DHT22;27790;50.840;4.386;2022-12-18T08:51:55;0.40;96.00
39675;DHT22;27790;50.840;4.386;2022-12-18T08:54:22;0.50;95.90
39675;DHT22;27790;50.840;4.386;2022-12-18T08:56:48;0.60;95.80
39675;DHT22;27790;50.840;4.386;2022-12-18T08:59:15;0.70;95.50
39675;DHT22;27790;50.840;4.386;2022-12-18T09:01:41;0.70;95.30
39675;DHT22;27790;50.840;4.386;2022-12-18T09:04:08;0.70;95.30
39675;DHT22;27790;50.840;4.386;2022-12-18T09:06:34;0.80;95.50
39675;DHT22;27790;50.840;4.386;2022-12-18T09:09:00;0.80;95.40
39675;DHT22;27790;50.840;4.386;2022-12-18T09:11:27;1.00;95.50
39675;DHT22;27790;50.840;4.386;2022-12-18T09:13:54;1.10;95.30
39675;DHT22;27790;50.840;4.386;2022-12-18T09:16:20;1.20;95.10
39675;DHT22;27790;50.840;4.386;2022-12-18T09:18:47;1.30;95.10
39675;DHT22;27790;50.840;4.386;2022-12-18T09:21:18;1.50;95.00
39675;DHT22;27790;50.840;4.386;2022-12-18T09:23:48;1.50;94.80
39675;DHT22;27790;50.840;4.386;2022-12-18T09:26:14;1.60;94.80
39675;DHT22;27790;50.840;4.386;2022-12-18T09:28:39;1.70;94.50
39675;DHT22;27790;50.840;4.386;2022-12-18T09:31:07;1.60;94.30
39675;DHT22;27790;50.840;4.386;2022-12-18T09:33:36;1.60;94.40
39675;DHT22;27790;50.840;4.386;2022-12-18T09:36:04;1.60;94.60
39675;DHT22;27790;50.840;4.386;2022-12-18T09:38:30;1.60;94.60
39675;DHT22;27790;50.840;4.386;2022-12-18T09:43:43;1.60;94.30
39675;DHT22;27790;50.840;4.386;2022-12-18T09:46:17;1.60;94.40
39675;DHT22;27790;50.840;4.386;2022-12-18T09:48:47;1.70;94.20
39675;DHT22;27790;50.840;4.386;2022-12-18T09:54:21;1.80;94.20
39675;DHT22;27790;50.840;4.386;2022-12-18T09:56:48;1.70;94.00
39675;DHT22;27790;50.840;4.386;2022-12-18T09:59:32;1.80;94.10
39675;DHT22;27790;50.840;4.386;2022-12-18T10:01:59;1.80;93.90
39675;DHT22;27790;50.840;4.386;2022-12-18T10:04:26;1.70;94.10
39675;DHT22;27790;50.840;4.386;2022-12-18T10:07:14;1.70;94.20
39675;DHT22;27790;50.840;4.386;2022-12-18T10:09:53;1.80;94.00
39675;DHT22;27790;50.840;4.386;2022-12-18T10:12:24;1.90;94.10
39675;DHT22;27790;50.840;4.386;2022-12-18T10:15:05;2.00;93.60
39675;DHT22;27790;50.840;4.386;2022-12-18T10:20:16;2.10;93.90
39675;DHT22;27790;50.840;4.386;2022-12-18T10:25:40;2.20;93.90
39675;DHT22;27790;50.840;4.386;2022-12-18T10:28:11;2.10;93.90
39675;DHT22;27790;50.840;4.386;2022-12-18T10:30:39;2.10;94.10
39675;DHT22;27790;50.840;4.386;2022-12-18T10:33:05;2.20;94.20
39675;DHT22;27790;50.840;4.386;2022-12-18T10:35:31;2.30;94.00
39675;DHT22;27790;50.840;4.386;2022-12-18T10:43:23;2.40;94.10
39675;DHT22;27790;50.840;4.386;2022-12-18T10:51:20;2.50;93.60
39675;DHT22;27790;50.840;4.386;2022-12-18T10:53:59;2.70;93.50
39675;DHT22;27790;50.840;4.386;2022-12-18T10:56:27;2.60;93.60
39675;DHT22;27790;50.840;4.386;2022-12-18T10:59:08;2.70;93.70
39675;DHT22;27790;50.840;4.386;2022-12-18T11:01:51;2.70;93.60
39675;DHT22;27790;50.840;4.386;2022-12-18T11:04:29;2.70;93.60
39675;DHT22;27790;50.840;4.386;2022-12-18T11:09:33;3.00;93.30
39675;DHT22;27790;50.840;4.386;2022-12-18T11:11:59;3.10;93.20
39675;DHT22;27790;50.840;4.386;2022-12-18T11:14:27;3.20;92.90
39675;DHT22;27790;50.840;4.386;2022-12-18T11:16:54;3.30;93.00
39675;DHT22;27790;50.840;4.386;2022-12-18T11:21:59;3.40;92.50
39675;DHT22;27790;50.840;4.386;2022-12-18T11:24:34;3.40;92.50
39675;DHT22;27790;50.840;4.386;2022-12-18T11:27:05;3.40;92.30
39675;DHT22;27790;50.840;4.386;2022-12-18T11:29:34;3.40;92.10
39675;DHT22;27790;50.840;4.386;2022-12-18T11:35:10;3.50;92.00
39675;DHT22;27790;50.840;4.386;2022-12-18T11:37:40;3.50;91.90
39675;DHT22;27790;50.840;4.386;2022-12-18T11:40:14;3.60;91.90
39675;DHT22;27790;50.840;4.386;2022-12-18T11:42:54;3.70;91.70
39675;DHT22;27790;50.840;4.386;2022-12-18T11:45:34;3.80;91.70
39675;DHT22;27790;50.840;4.386;2022-12-18T11:53:02;3.70;91.90
39675;DHT22;27790;50.840;4.386;2022-12-18T11:55:41;3.60;91.80
39675;DHT22;27790;50.840;4.386;2022-12-18T12:07:01;3.60;91.60
39675;DHT22;27790;50.840;4.386;2022-12-18T12:17:45;3.70;91.80
39675;DHT22;27790;50.840;4.386;2022-12-18T12:20:25;3.80;91.80
39675;DHT22;27790;50.840;4.386;2022-12-18T12:31:01;4.10;91.30
39675;DHT22;27790;50.840;4.386;2022-12-18T12:33:39;4.10;91.50
39675;DHT22;27790;50.840;4.386;2022-12-18T12:38:51;4.20;91.60
39675;DHT22;27790;50.840;4.386;2022-12-18T12:41:24;4.20;91.60
39675;DHT22;27790;50.840;4.386;2022-12-18T12:44:04;4.20;91.60
39675;DHT22;27790;50.840;4.386;2022-12-18T12:46:34;4.10;91.70
39675;DHT22;27790;50.840;4.386;2022-12-18T12:49:03;4.00;91.50
39675;DHT22;27790;50.840;4.386;2022-12-18T12:51:40;4.00;91.70
39675;DHT22;27790;50.840;4.386;2022-12-18T12:54:15;4.10;91.70
39675;DHT22;27790;50.840;4.386;2022-12-18T13:05:04;3.90;91.80
39675;DHT22;27790;50.840;4.386;2022-12-18T13:07:47;3.90;92.00
39675;DHT22;27790;50.840;4.386;2022-12-18T13:34:30;3.80;92.10
39675;DHT22;27790;50.840;4.386;2022-12-18T13:39:52;3.70;92.40
39675;DHT22;27790;50.840;4.386;2022-12-18T13:44:54;3.70;92.70
39675;DHT22;27790;50.840;4.386;2022-12-18T13:47:31;3.60;92.70
39675;DHT22;27790;50.840;4.386;2022-12-18T13:49:57;3.70;92.90
39675;DHT22;27790;50.840;4.386;2022-12-18T13:52:28;3.70;92.80
39675;DHT22;27790;50.840;4.386;2022-12-18T13:54:59;3.80;92.70
39675;DHT22;27790;50.840;4.386;2022-12-18T13:57:37;3.70;92.80
39675;DHT22;27790;50.840;4.386;2022-12-18T14:02:51;3.70;93.00
39675;DHT22;27790;50.840;4.386;2022-12-18T14:05:29;3.70;93.00
39675;DHT22;27790;50.840;4.386;2022-12-18T14:07:59;3.70;92.90
39675;DHT22;27790;50.840;4.386;2022-12-18T14:10:26;3.60;92.90
39675;DHT22;27790;50.840;4.386;2022-12-18T14:12:51;3.60;93.00
39675;DHT22;27790;50.840;4.386;2022-12-18T14:15:34;3.60;93.10
39675;DHT22;27790;50.840;4.386;2022-12-18T14:20:43;3.60;93.00
39675;DHT22;27790;50.840;4.386;2022-12-18T14:25:57;3.50;93.20
39675;DHT22;27790;50.840;4.386;2022-12-18T14:28:22;3.50;93.30
39675;DHT22;27790;50.840;4.386;2022-12-18T14:30:49;3.60;93.30
39675;DHT22;27790;50.840;4.386;2022-12-18T14:38:31;3.70;93.10
39675;DHT22;27790;50.840;4.386;2022-12-18T14:41:17;3.70;93.10
39675;DHT22;27790;50.840;4.386;2022-12-18T14:43:45;3.80;93.00
39675;DHT22;27790;50.840;4.386;2022-12-18T14:49:00;3.80;92.90
39675;DHT22;27790;50.840;4.386;2022-12-18T14:51:28;3.90;92.80
39675;DHT22;27790;50.840;4.386;2022-12-18T14:54:00;3.80;92.90
39675;DHT22;27790;50.840;4.386;2022-12-18T14:56:37;3.70;93.00
39675;DHT22;27790;50.840;4.386;2022-12-18T14:59:21;3.70;92.90
39675;DHT22;27790;50.840;4.386;2022-12-18T15:01:58;3.80;92.90
39675;DHT22;27790;50.840;4.386;2022-12-18T15:04:38;3.80;92.60
39675;DHT22;27790;50.840;4.386;2022-12-18T15:07:16;3.80;92.60
39675;DHT22;27790;50.840;4.386;2022-12-18T15:09:47;3.90;92.70
39675;DHT22;27790;50.840;4.386;2022-12-18T15:12:37;3.90;92.40
39675;DHT22;27790;50.840;4.386;2022-12-18T15:15:05;3.90;92.30
39675;DHT22;27790;50.840;4.386;2022-12-18T15:17:30;3.90;92.40
39675;DHT22;27790;50.840;4.386;2022-12-18T15:20:02;3.90;92.30
39675;DHT22;27790;50.840;4.386;2022-12-18T15:22:35;3.90;92.40
39675;DHT22;27790;50.840;4.386;2022-12-18T15:25:02;3.90;92.30
39675;DHT22;27790;50.840;4.386;2022-12-18T15:27:30;3.90;92.30
39675;DHT22;27790;50.840;4.386;2022-12-18T15:30:23;3.90;92.40
39675;DHT22;27790;50.840;4.386;2022-12-18T15:32:51;3.90;92.30
39675;DHT22;27790;50.840;4.386;2022-12-18T15:35:20;3.90;92.20
39675;DHT22;27790;50.840;4.386;2022-12-18T15:37:47;3.90;92.30
39675;DHT22;27790;50.840;4.386;2022-12-18T15:40:15;3.90;92.10
39675;DHT22;27790;50.840;4.386;2022-12-18T15:42:42;3.90;92.10
39675;DHT22;27790;50.840;4.386;2022-12-18T15:45:19;3.90;92.30
39675;DHT22;27790;50.840;4.386;2022-12-18T15:47:45;3.90;92.10
39675;DHT22;27790;50.840;4.386;2022-12-18T15:50:10;3.90;92.30
39675;DHT22;27790;50.840;4.386;2022-12-18T15:52:44;3.90;92.20
39675;DHT22;27790;50.840;4.386;2022-12-18T15:55:13;3.90;92.30
39675;DHT22;27790;50.840;4.386;2022-12-18T15:57:51;3.90;92.00
39675;DHT22;27790;50.840;4.386;2022-12-18T16:00:17;3.90;92.00
39675;DHT22;27790;50.840;4.386;2022-12-18T16:02:42;3.90;92.10
39675;DHT22;27790;50.840;4.386;2022-12-18T16:05:14;3.90;92.00
39675;DHT22;27790;50.840;4.386;2022-12-18T16:07:40;3.90;91.80
39675;DHT22;27790;50.840;4.386;2022-12-18T16:10:06;3.90;91.70
39675;DHT22;27790;50.840;4.386;2022-12-18T16:12:32;3.90;91.70
39675;DHT22;27790;50.840;4.386;2022-12-18T16:14:57;3.90;91.70
39675;DHT22;27790;50.840;4.386;2022-12-18T16:17:23;4.00;91.50
39675;DHT22;27790;50.840;4.386;2022-12-18T16:19:48;4.00;91.50
39675;DHT22;27790;50.840;4.386;2022-12-18T16:22:21;3.90;91.50
39675;DHT22;27790;50.840;4.386;2022-12-18T16:24:47;3.90;91.50
39675;DHT22;27790;50.840;4.386;2022-12-18T16:27:13;3.90;91.40
39675;DHT22;27790;50.840;4.386;2022-12-18T16:29:39;3.90;91.40
39675;DHT22;27790;50.840;4.386;2022-12-18T16:32:05;4.00;91.30
39675;DHT22;27790;50.840;4.386;2022-12-18T16:34:32;4.00;91.30
39675;DHT22;27790;50.840;4.386;2022-12-18T16:37:01;4.00;91.20
39675;DHT22;27790;50.840;4.386;2022-12-18T16:39:27;4.00;91.20
39675;DHT22;27790;50.840;4.386;2022-12-18T16:41:53;4.10;91.20
39675;DHT22;27790;50.840;4.386;2022-12-18T16:44:20;4.00;91.20
39675;DHT22;27790;50.840;4.386;2022-12-18T16:46:46;4.00;91.30
39675;DHT22;27790;50.840;4.386;2022-12-18T16:49:13;4.00;91.30
39675;DHT22;27790;50.840;4.386;2022-12-18T16:51:39;4.00;91.20
39675;DHT22;27790;50.840;4.386;2022-12-18T16:54:05;4.20;91.00
39675;DHT22;27790;50.840;4.386;2022-12-18T16:56:31;4.20;90.90
39675;DHT22;27790;50.840;4.386;2022-12-18T16:58:59;4.20;90.80
39675;DHT22;27790;50.840;4.386;2022-12-18T17:01:27;4.30;90.70
39675;DHT22;27790;50.840;4.386;2022-12-18T17:03:59;4.30;90.70
39675;DHT22;27790;50.840;4.386;2022-12-18T17:06:26;4.30;90.90
39675;DHT22;27790;50.840;4.386;2022-12-18T17:09:01;4.20;90.90
39675;DHT22;27790;50.840;4.386;2022-12-18T17:11:29;4.30;91.00
39675;DHT22;27790;50.840;4.386;2022-12-18T17:13:56;4.30;91.00
39675;DHT22;27790;50.840;4.386;2022-12-18T17:16:23;4.30;91.10
39675;DHT22;27790;50.840;4.386;2022-12-18T17:18:49;4.30;91.00
39675;DHT22;27790;50.840;4.386;2022-12-18T17:21:15;4.40;91.10
39675;DHT22;27790;50.840;4.386;2022-12-18T17:23:42;4.50;91.00
39675;DHT22;27790;50.840;4.386;2022-12-18T17:26:08;4.50;91.40
39675;DHT22;27790;50.840;4.386;2022-12-18T17:28:36;4.50;91.40
39675;DHT22;27790;50.840;4.386;2022-12-18T17:31:30;4.50;91.30
39675;DHT22;27790;50.840;4.386;2022-12-18T17:33:55;4.50;91.40
39675;DHT22;27790;50.840;4.386;2022-12-18T17:36:22;4.60;91.50
39675;DHT22;27790;50.840;4.386;2022-12-18T17:38:51;4.60;91.50
39675;DHT22;27790;50.840;4.386;2022-12-18T17:41:17;4.70;91.70
39675;DHT22;27790;50.840;4.386;2022-12-18T17:43:43;4.60;92.00
39675;DHT22;27790;50.840;4.386;2022-12-18T17:46:11;4.70;92.40
39675;DHT22;27790;50.840;4.386;2022-12-18T17:48:37;4.70;92.40
39675;DHT22;27790;50.840;4.386;2022-12-18T17:51:04;4.70;92.60
39675;DHT22;27790;50.840;4.386;2022-12-18T17:53:30;4.60;92.90
39675;DHT22;27790;50.840;4.386;2022-12-18T17:55:57;4.60;93.20
39675;DHT22;27790;50.840;4.386;2022-12-18T17:58:25;4.50;93.50
39675;DHT22;27790;50.840;4.386;2022-12-18T18:00:51;4.50;94.10
39675;DHT22;27790;50.840;4.386;2022-12-18T18:03:17;4.50;94.40
39675;DHT22;27790;50.840;4.386;2022-12-18T18:05:42;4.40;94.50
39675;DHT22;27790;50.840;4.386;2022-12-18T18:08:08;4.40;94.80
39675;DHT22;27790;50.840;4.386;2022-12-18T18:10:38;4.50;94.90
39675;DHT22;27790;50.840;4.386;2022-12-18T18:13:16;4.50;95.10